地図

経路データ

SID SEASON NUMBER BASIN SUBBASIN NAME ISO_TIME NATURE LAT LON WMO_WIND WMO_PRES WMO_AGENCY TRACK_TYPE DIST2LAND LANDFALL IFLAG USA_AGENCY USA_ATCF_ID USA_LAT USA_LON USA_RECORD USA_STATUS USA_WIND USA_PRES USA_SSHS USA_R34_NE USA_R34_SE USA_R34_SW USA_R34_NW USA_R50_NE USA_R50_SE USA_R50_SW USA_R50_NW USA_R64_NE USA_R64_SE USA_R64_SW USA_R64_NW USA_POCI USA_ROCI USA_RMW USA_EYE TOKYO_LAT TOKYO_LON TOKYO_GRADE TOKYO_WIND TOKYO_PRES TOKYO_R50_DIR TOKYO_R50_LONG TOKYO_R50_SHORT TOKYO_R30_DIR TOKYO_R30_LONG TOKYO_R30_SHORT TOKYO_LAND CMA_LAT CMA_LON CMA_CAT CMA_WIND CMA_PRES HKO_LAT HKO_LON HKO_CAT HKO_WIND HKO_PRES NEWDELHI_LAT NEWDELHI_LON NEWDELHI_GRADE NEWDELHI_WIND NEWDELHI_PRES NEWDELHI_CI NEWDELHI_DP NEWDELHI_POCI REUNION_LAT REUNION_LON REUNION_TYPE REUNION_WIND REUNION_PRES REUNION_TNUM REUNION_CI REUNION_RMW REUNION_R34_NE REUNION_R34_SE REUNION_R34_SW REUNION_R34_NW REUNION_R50_NE REUNION_R50_SE REUNION_R50_SW REUNION_R50_NW REUNION_R64_NE REUNION_R64_SE REUNION_R64_SW REUNION_R64_NW BOM_LAT BOM_LON BOM_TYPE BOM_WIND BOM_PRES BOM_TNUM BOM_CI BOM_RMW BOM_R34_NE BOM_R34_SE BOM_R34_SW BOM_R34_NW BOM_R50_NE BOM_R50_SE BOM_R50_SW BOM_R50_NW BOM_R64_NE BOM_R64_SE BOM_R64_SW BOM_R64_NW BOM_ROCI BOM_POCI BOM_EYE BOM_POS_METHOD BOM_PRES_METHOD NADI_LAT NADI_LON NADI_CAT NADI_WIND NADI_PRES WELLINGTON_LAT WELLINGTON_LON WELLINGTON_WIND WELLINGTON_PRES DS824_LAT DS824_LON DS824_STAGE DS824_WIND DS824_PRES TD9636_LAT TD9636_LON TD9636_STAGE TD9636_WIND TD9636_PRES TD9635_LAT TD9635_LON TD9635_WIND TD9635_PRES TD9635_ROCI NEUMANN_LAT NEUMANN_LON NEUMANN_CLASS NEUMANN_WIND NEUMANN_PRES MLC_LAT MLC_LON MLC_CLASS MLC_WIND MLC_PRES USA_GUST BOM_GUST BOM_GUST_PER REUNION_GUST REUNION_GUST_PER USA_SEAHGT USA_SEARAD_NE USA_SEARAD_SE USA_SEARAD_SW USA_SEARAD_NW STORM_SPEED STORM_DIR
1935241N23291 1935 46 NA NA NOT_NAMED 1935-08-29 06:00:00 TS 23.3000 -68.8000 25 hurdat_atl main 431 428 O_____________ hurdat_atl AL031935 23.3000 -68.8000 TD 25 -1 5 291
1935241N23291 1935 46 NA NA NOT_NAMED 1935-08-29 09:00:00 TS 23.3901 -69.0525 main 431 427 P_____________ AL031935 23.3901 -69.0525 TD 25 -1 5 293
1935241N23291 1935 46 NA NA NOT_NAMED 1935-08-29 12:00:00 TS 23.5000 -69.3000 25 hurdat_atl main 434 431 O_____________ hurdat_atl AL031935 23.5000 -69.3000 TD 25 -1 5 299
1935241N23291 1935 46 NA NA NOT_NAMED 1935-08-29 15:00:00 TS 23.6424 -69.5425 main 439 438 P_____________ AL031935 23.6424 -69.5425 TD 25 -1 5 303
1935241N23291 1935 46 NA NA NOT_NAMED 1935-08-29 18:00:00 TS 23.8000 -69.8000 25 hurdat_atl main 438 423 O_____________ hurdat_atl AL031935 23.8000 -69.8000 TD 25 -1 6 302
1935241N23291 1935 46 NA NA NOT_NAMED 1935-08-29 21:00:00 TS 23.9650 -70.0999 main 431 417 P_____________ AL031935 23.9650 -70.0999 TD 27 -1 6 299
1935241N23291 1935 46 NA NA NOT_NAMED 1935-08-30 00:00:00 TS 24.1000 -70.4000 30 hurdat_atl main 419 413 O_____________ hurdat_atl AL031935 24.1000 -70.4000 TD 30 -1 6 292
1935241N23291 1935 46 NA NA NOT_NAMED 1935-08-30 03:00:00 TS 24.1724 -70.6576 main 409 398 P_____________ AL031935 24.1724 -70.6576 TD 30 -1 5 282
1935241N23291 1935 46 NA NA NOT_NAMED 1935-08-30 06:00:00 TS 24.2000 -70.9000 30 hurdat_atl main 398 387 O_____________ hurdat_atl AL031935 24.2000 -70.9000 TD 30 -1 4 276
1935241N23291 1935 46 NA NA NOT_NAMED 1935-08-30 09:00:00 TS 24.2149 -71.1350 main 387 373 P_____________ AL031935 24.2149 -71.1350 TD 30 -1 5 270
1935241N23291 1935 46 NA NA NOT_NAMED 1935-08-30 12:00:00 TS 24.2000 -71.4000 30 hurdat_atl main 373 360 O_____________ hurdat_atl AL031935 24.2000 -71.4000 TD 30 -1 5 263
1935241N23291 1935 46 NA NA NOT_NAMED 1935-08-30 15:00:00 TS 24.1500 -71.7276 main 350 337 P_____________ AL031935 24.1500 -71.7276 TD 30 -1 6 261
1935241N23291 1935 46 NA NA NOT_NAMED 1935-08-30 18:00:00 TS 24.1000 -72.1000 30 hurdat_atl main 337 328 O_____________ hurdat_atl AL031935 24.1000 -72.1000 TD 30 -1 7 266
1935241N23291 1935 46 NA NA NOT_NAMED 1935-08-30 21:00:00 TS 24.1000 -72.4924 main 328 324 P_____________ AL031935 24.1000 -72.4924 TD 32 -1 7 270
1935241N23291 1935 46 NA NA NOT_NAMED 1935-08-31 00:00:00 TS 24.1000 -72.9000 35 hurdat_atl main 324 324 O_____________ hurdat_atl AL031935 24.1000 -72.9000 TS 35 0 7 267
1935241N23291 1935 46 NA NA NOT_NAMED 1935-08-31 03:00:00 TS 24.0574 -73.3000 main 324 313 P_____________ AL031935 24.0574 -73.3000 TS 35 0 7 262
1935241N23291 1935 46 NA NA NOT_NAMED 1935-08-31 06:00:00 TS 24.0000 -73.7000 35 hurdat_atl main 317 317 O_____________ hurdat_atl AL031935 24.0000 -73.7000 TS 35 0 7 262
1935241N23291 1935 46 NA NA NOT_NAMED 1935-08-31 09:00:00 TS 23.9499 -74.1075 main 315 315 P_____________ AL031935 23.9499 -74.1075 TS 37 0 7 262
1935241N23291 1935 46 NA NA NOT_NAMED 1935-08-31 12:00:00 TS 23.9000 -74.5000 40 hurdat_atl main 323 301 O_____________ hurdat_atl AL031935 23.9000 -74.5000 TS 40 0 7 262
1935241N23291 1935 46 NA NA NOT_NAMED 1935-08-31 15:00:00 TS 23.8499 -74.8575 main 294 265 P_____________ AL031935 23.8499 -74.8575 TS 42 0 6 261
1935241N23291 1935 46 NA NA NOT_NAMED 1935-08-31 18:00:00 TS 23.8000 -75.2000 45 hurdat_atl main 265 236 O_____________ hurdat_atl AL031935 23.8000 -75.2000 TS 45 0 6 260
1935241N23291 1935 46 NA NA NOT_NAMED 1935-08-31 21:00:00 TS 23.7424 -75.5500 main 231 203 P_____________ AL031935 23.7424 -75.5500 TS 47 0 6 261
1935241N23291 1935 46 NA NA NOT_NAMED 1935-09-01 00:00:00 TS 23.7000 -75.9000 50 hurdat_atl main 203 176 O_____________ hurdat_atl AL031935 23.7000 -75.9000 TS 50 0 6 266
1935241N23291 1935 46 NA NA NOT_NAMED 1935-09-01 03:00:00 TS 23.6924 -76.2499 main 176 142 P_____________ AL031935 23.6924 -76.2499 TS 52 0 6 270
1935241N23291 1935 46 NA NA NOT_NAMED 1935-09-01 06:00:00 TS 23.7000 -76.6000 55 hurdat_atl main 142 120 O_____________ hurdat_atl AL031935 23.7000 -76.6000 TS 55 0 6 271
1935241N23291 1935 46 NA NA NOT_NAMED 1935-09-01 09:00:00 TS 23.7000 -76.9575 main 113 90 P_____________ AL031935 23.7000 -76.9575 TS 60 0 6 270
1935241N23291 1935 46 NA NA NOT_NAMED 1935-09-01 12:00:00 TS 23.7000 -77.3000 65 hurdat_atl main 90 69 O_____________ hurdat_atl AL031935 23.7000 -77.3000 HU 65 1 6 270
1935241N23291 1935 46 NA NA NOT_NAMED 1935-09-01 15:00:00 TS 23.6999 -77.6075 main 69 56 P_____________ AL031935 23.6999 -77.6075 HU 70 1 5 270
1935241N23291 1935 46 NA NA NOT_NAMED 1935-09-01 18:00:00 TS 23.7000 -77.9000 75 hurdat_atl main 56 55 O_____________ hurdat_atl AL031935 23.7000 -77.9000 HU 75 1 5 270
1935241N23291 1935 46 NA NA NOT_NAMED 1935-09-01 21:00:00 TS 23.7000 -78.2075 main 59 59 P_____________ AL031935 23.7000 -78.2075 HU 82 1 5 270
1935241N23291 1935 46 NA NA NOT_NAMED 1935-09-02 00:00:00 TS 23.7000 -78.5000 90 hurdat_atl main 75 75 O_____________ hurdat_atl AL031935 23.7000 -78.5000 HU 90 2 5 269
1935241N23291 1935 46 NA NA NOT_NAMED 1935-09-02 03:00:00 TS 23.6924 -78.7575 main 98 98 P_____________ AL031935 23.6924 -78.7575 HU 97 3 5 270
1935241N23291 1935 46 NA NA NOT_NAMED 1935-09-02 06:00:00 TS 23.7000 -79.0000 105 hurdat_atl main 112 112 O_____________ hurdat_atl AL031935 23.7000 -79.0000 HU 105 3 5 274
1935241N23291 1935 46 NA NA NOT_NAMED 1935-09-02 09:00:00 TS 23.7275 -79.2501 main 114 112 P_____________ AL031935 23.7275 -79.2501 HU 112 3 5 282
1935241N23291 1935 46 NA NA NOT_NAMED 1935-09-02 12:00:00 TS 23.8000 -79.5000 120 hurdat_atl main 112 108 O_____________ hurdat_atl AL031935 23.8000 -79.5000 HU 120 4 5 293
1935241N23291 1935 46 NA NA NOT_NAMED 1935-09-02 15:00:00 TS 23.9200 -79.7501 main 113 113 P_____________ AL031935 23.9200 -79.7501 HU 127 4 5 303
1935241N23291 1935 46 NA NA NOT_NAMED 1935-09-02 18:00:00 TS 24.1000 -80.0000 135 hurdat_atl main 118 91 O_____________ hurdat_atl AL031935 24.1000 -80.0000 HU 135 4 6 314
1935241N23291 1935 46 NA NA NOT_NAMED 1935-09-02 21:00:00 TS 24.3253 -80.2037 main 91 55 P_____________ AL031935 24.3253 -80.2037 HU 147 5 7 318
1935241N23291 1935 46 NA NA NOT_NAMED 1935-09-03 00:00:00 TS 24.6000 -80.5000 160 892 hurdat_atl main 56 33 O_____________ hurdat_atl AL031935 24.6000 -80.5000 HU 160 892 5 9 311
1935241N23291 1935 46 NA NA NOT_NAMED 1935-09-03 02:00:00 TS 24.8000 -80.8000 160 892 hurdat_atl main 35 30 O_____________ hurdat_atl AL031935 24.8000 -80.8000 L HU 160 892 5 9 308
1935241N23291 1935 46 NA GM NOT_NAMED 1935-09-03 03:00:00 TS 24.8823 -80.9044 main 30 0 P_____________ AL031935 24.8823 -80.9044 HU 160 5 6 318
1935241N23291 1935 46 NA GM NOT_NAMED 1935-09-03 06:00:00 TS 25.1000 -81.1000 160 hurdat_atl main 0 0 O_____________ hurdat_atl AL031935 25.1000 -81.1000 HU 160 5 6 322
1935241N23291 1935 46 NA GM NOT_NAMED 1935-09-03 09:00:00 TS 25.3792 -81.3385 main 15 15 P_____________ AL031935 25.3792 -81.3385 HU 152 5 8 323
1935241N23291 1935 46 NA GM NOT_NAMED 1935-09-03 12:00:00 TS 25.7000 -81.6000 145 hurdat_atl main 22 0 O_____________ hurdat_atl AL031935 25.7000 -81.6000 HU 145 5 8 323
1935241N23291 1935 46 NA GM NOT_NAMED 1935-09-03 15:00:00 TS 26.0425 -81.8926 main 14 9 P_____________ AL031935 26.0425 -81.8926 HU 137 5 9 322
1935241N23291 1935 46 NA GM NOT_NAMED 1935-09-03 18:00:00 TS 26.4000 -82.2000 130 hurdat_atl main 22 14 O_____________ hurdat_atl AL031935 26.4000 -82.2000 HU 130 4 9 322
1935241N23291 1935 46 NA GM NOT_NAMED 1935-09-03 21:00:00 TS 26.7500 -82.5150 main 19 19 P_____________ AL031935 26.7500 -82.5150 HU 122 4 9 323
1935241N23291 1935 46 NA GM NOT_NAMED 1935-09-04 00:00:00 TS 27.1000 -82.8000 115 hurdat_atl main 29 22 O_____________ hurdat_atl AL031935 27.1000 -82.8000 HU 115 4 8 327
1935241N23291 1935 46 NA GM NOT_NAMED 1935-09-04 03:00:00 TS 27.4574 -83.0301 main 37 29 P_____________ AL031935 27.4574 -83.0301 HU 110 3 8 333
1935241N23291 1935 46 NA GM NOT_NAMED 1935-09-04 06:00:00 TS 27.8000 -83.2000 105 hurdat_atl main 31 29 O_____________ hurdat_atl AL031935 27.8000 -83.2000 HU 105 3 7 337
1935241N23291 1935 46 NA GM NOT_NAMED 1935-09-04 09:00:00 TS 28.1000 -83.3301 main 45 45 P_____________ AL031935 28.1000 -83.3301 HU 100 3 6 344
1935241N23291 1935 46 NA GM NOT_NAMED 1935-09-04 12:00:00 TS 28.4000 -83.4000 95 hurdat_atl main 67 62 O_____________ hurdat_atl AL031935 28.4000 -83.4000 HU 95 2 6 353
1935241N23291 1935 46 NA GM NOT_NAMED 1935-09-04 15:00:00 TS 28.7383 -83.4143 main 62 31 P_____________ AL031935 28.7383 -83.4143 HU 90 2 7 0
1935241N23291 1935 46 NA GM NOT_NAMED 1935-09-04 18:00:00 TS 29.1000 -83.4000 85 hurdat_atl main 31 11 O_____________ hurdat_atl AL031935 29.1000 -83.4000 HU 85 2 7 0
1935241N23291 1935 46 NA GM NOT_NAMED 1935-09-04 21:00:00 TS 29.4641 -83.4000 main 0 0 P_____________ AL031935 29.4641 -83.4000 HU 85 2 8 2
1935241N23291 1935 46 NA GM NOT_NAMED 1935-09-04 22:00:00 TS 29.6000 -83.4000 85 965 hurdat_atl main 0 0 O_____________ hurdat_atl AL031935 29.6000 -83.4000 L HU 85 965 2 9 0
1935241N23291 1935 46 NA NA NOT_NAMED 1935-09-05 00:00:00 TS 29.9000 -83.4000 75 hurdat_atl main 0 0 O_____________ hurdat_atl AL031935 29.9000 -83.4000 HU 75 1 9 5
1935241N23291 1935 46 NA NA NOT_NAMED 1935-09-05 03:00:00 TS 30.3818 -83.3041 main 0 0 P_____________ AL031935 30.3818 -83.3041 HU 70 1 10 15
1935241N23291 1935 46 NA NA NOT_NAMED 1935-09-05 06:00:00 TS 30.9000 -83.1000 65 hurdat_atl main 0 0 O_____________ hurdat_atl AL031935 30.9000 -83.1000 HU 65 1 11 20
1935241N23291 1935 46 NA NA NOT_NAMED 1935-09-05 09:00:00 TS 31.4348 -82.8519 main 0 0 P_____________ AL031935 31.4348 -82.8519 HU 60 0 12 25
1935241N23291 1935 46 NA NA NOT_NAMED 1935-09-05 12:00:00 TS 32.0000 -82.5000 55 hurdat_atl main 0 0 O_____________ hurdat_atl AL031935 32.0000 -82.5000 TS 55 0 13 30
1935241N23291 1935 46 NA NA NOT_NAMED 1935-09-05 15:00:00 TS 32.5771 -82.0663 main 0 0 P_____________ AL031935 32.5771 -82.0663 TS 52 0 15 35
1935241N23291 1935 46 NA NA NOT_NAMED 1935-09-05 18:00:00 TS 33.2000 -81.5000 50 hurdat_atl main 0 0 O_____________ hurdat_atl AL031935 33.2000 -81.5000 TS 50 0 17 39
1935241N23291 1935 46 NA NA NOT_NAMED 1935-09-05 21:00:00 TS 33.8769 -80.8237 main 0 0 P_____________ AL031935 33.8769 -80.8237 TS 47 0 19 42
1935241N23291 1935 46 NA NA NOT_NAMED 1935-09-06 00:00:00 TS 34.6000 -80.0000 45 hurdat_atl main 0 0 O_____________ hurdat_atl AL031935 34.6000 -80.0000 TS 45 0 20 44
1935241N23291 1935 46 NA NA NOT_NAMED 1935-09-06 03:00:00 TS 35.3481 -79.1027 main 0 0 P_____________ AL031935 35.3481 -79.1027 TS 47 0 22 47
1935241N23291 1935 46 NA NA NOT_NAMED 1935-09-06 06:00:00 TS 36.1000 -78.0000 50 996 hurdat_atl main 0 0 O_____________ hurdat_atl AL031935 36.1000 -78.0000 TS 50 996 0 24 53
1935241N23291 1935 46 NA NA NOT_NAMED 1935-09-06 09:00:00 TS 36.8189 -76.7118 main 0 0 P_____________ AL031935 36.8189 -76.7118 TS 57 0 27 59
1935241N23291 1935 46 NA NA NOT_NAMED 1935-09-06 12:00:00 TS 37.5000 -75.1000 65 hurdat_atl main 48 48 O_____________ hurdat_atl AL031935 37.5000 -75.1000 HU 65 1 31 65
1935241N23291 1935 46 NA NA NOT_NAMED 1935-09-06 15:00:00 TS 38.1178 -73.1902 main 167 167 P_____________ AL031935 38.1178 -73.1902 HU 70 1 35 70
1935241N23291 1935 46 NA NA NOT_NAMED 1935-09-06 18:00:00 TS 38.7000 -70.9000 75 hurdat_atl main 274 274 O_____________ hurdat_atl AL031935 38.7000 -70.9000 HU 75 1 40 74
1935241N23291 1935 46 NA NA NOT_NAMED 1935-09-06 21:00:00 TS 39.2590 -68.2222 main 307 307 P_____________ AL031935 39.2590 -68.2222 HU 77 1 44 76
1935241N23291 1935 46 NA NA NOT_NAMED 1935-09-07 00:00:00 ET 39.8000 -65.4000 80 hurdat_atl main 411 390 O_____________ hurdat_atl AL031935 39.8000 -65.4000 EX 80 -4 43 75
1935241N23291 1935 46 NA NA NOT_NAMED 1935-09-07 03:00:00 ET 40.3427 -62.7730 main 411 410 P_____________ AL031935 40.3427 -62.7730 EX 80 -4 41 74
1935241N23291 1935 46 NA NA NOT_NAMED 1935-09-07 06:00:00 ET 40.9000 -60.2000 80 hurdat_atl main 472 472 O_____________ hurdat_atl AL031935 40.9000 -60.2000 EX 80 -4 41 74
1935241N23291 1935 46 NA NA NOT_NAMED 1935-09-07 09:00:00 ET 41.4452 -57.5812 main 507 507 P_____________ AL031935 41.4452 -57.5812 EX 80 -4 40 74
1935241N23291 1935 46 NA NA NOT_NAMED 1935-09-07 12:00:00 ET 42.0000 -55.0000 80 hurdat_atl main 523 456 O_____________ hurdat_atl AL031935 42.0000 -55.0000 EX 80 -4 39 74
1935241N23291 1935 46 NA NA NOT_NAMED 1935-09-07 15:00:00 ET 42.5436 -52.4804 main 459 443 P_____________ AL031935 42.5436 -52.4804 EX 77 -4 38 73
1935241N23291 1935 46 NA NA NOT_NAMED 1935-09-07 18:00:00 ET 43.1000 -50.0000 75 hurdat_atl main 462 462 O_____________ hurdat_atl AL031935 43.1000 -50.0000 EX 75 -4 38 73
1935241N23291 1935 46 NA NA NOT_NAMED 1935-09-07 21:00:00 ET 43.6297 -47.4936 main 556 555 P_____________ AL031935 43.6297 -47.4936 EX 75 -4 38 73
1935241N23291 1935 46 NA NA NOT_NAMED 1935-09-08 00:00:00 ET 44.2000 -45.0000 75 hurdat_atl main 684 684 O_____________ hurdat_atl AL031935 44.2000 -45.0000 EX 75 -4 38 72
1935241N23291 1935 46 NA NA NOT_NAMED 1935-09-08 03:00:00 ET 44.8232 -42.4810 main 830 830 P_____________ AL031935 44.8232 -42.4810 EX 75 -4 38 70
1935241N23291 1935 46 NA NA NOT_NAMED 1935-09-08 06:00:00 ET 45.5000 -40.0000 75 hurdat_atl main 984 984 O_____________ hurdat_atl AL031935 45.5000 -40.0000 EX 75 -4 38 69
1935241N23291 1935 46 NA NA NOT_NAMED 1935-09-08 09:00:00 ET 46.1802 -37.4133 main 1158 1158 P_____________ AL031935 46.1802 -37.4133 EX 75 -4 36 67
1935241N23291 1935 46 NA NA NOT_NAMED 1935-09-08 12:00:00 ET 46.9000 -35.2000 75 hurdat_atl main 1307 1307 O_____________ hurdat_atl AL031935 46.9000 -35.2000 EX 75 -4 29 60
1935241N23291 1935 46 NA NA NOT_NAMED 1935-09-08 15:00:00 ET 47.6707 -33.6753 main 1407 1407 P_____________ AL031935 47.6707 -33.6753 EX 75 -4 23 46
1935241N23291 1935 46 NA NA NOT_NAMED 1935-09-08 18:00:00 ET 48.5000 -32.7000 75 hurdat_atl main 1446 1387 O_____________ hurdat_atl AL031935 48.5000 -32.7000 EX 75 -4 20 35
1935241N23291 1935 46 NA NA NOT_NAMED 1935-09-08 21:00:00 ET 49.3332 -31.9320 main 1390 1315 P_____________ AL031935 49.3332 -31.9320 EX 72 -4 19 25
1935241N23291 1935 46 NA NA NOT_NAMED 1935-09-09 00:00:00 ET 50.2000 -31.5000 70 hurdat_atl main 1315 1245 O_____________ hurdat_atl AL031935 50.2000 -31.5000 EX 70 -4 18 14
1935241N23291 1935 46 NA NA NOT_NAMED 1935-09-09 03:00:00 ET 51.0770 -31.2571 main 1236 1165 P_____________ AL031935 51.0770 -31.2571 EX 70 -4 18 6
1935241N23291 1935 46 NA NA NOT_NAMED 1935-09-09 06:00:00 ET 52.0000 -31.2000 70 hurdat_atl main 1156 1070 O_____________ hurdat_atl AL031935 52.0000 -31.2000 EX 70 -4 19 3
1935241N23291 1935 46 NA NA NOT_NAMED 1935-09-09 09:00:00 ET 53.0222 -31.1196 main 1070 989 P_____________ AL031935 53.0222 -31.1196 EX 70 -4 20 0
1935241N23291 1935 46 NA NA NOT_NAMED 1935-09-09 12:00:00 ET 54.0000 -31.2000 70 hurdat_atl main 981 907 O_____________ hurdat_atl AL031935 54.0000 -31.2000 EX 70 -4 18 354
1935241N23291 1935 46 NA NA NOT_NAMED 1935-09-09 15:00:00 ET 54.8238 -31.4511 main 903 826 P_____________ AL031935 54.8238 -31.4511 EX 67 -4 16 343
1935241N23291 1935 46 NA NA NOT_NAMED 1935-09-09 18:00:00 ET 55.5000 -32.0000 65 hurdat_atl main 826 745 O_____________ hurdat_atl AL031935 55.5000 -32.0000 EX 65 -4 15 328
1935241N23291 1935 46 NA NA NOT_NAMED 1935-09-09 21:00:00 ET 56.0899 -32.8698 main 740 665 P_____________ AL031935 56.0899 -32.8698 EX 62 -4 15 312
1935241N23291 1935 46 NA NA NOT_NAMED 1935-09-10 00:00:00 ET 56.5000 -34.0000 60 hurdat_atl main 660 596 O_____________ hurdat_atl AL031935 56.5000 -34.0000 EX 60 -4 14 296
1935241N23291 1935 46 NA NA NOT_NAMED 1935-09-10 03:00:00 ET 56.7097 -35.2168 main 591 532 P_____________ AL031935 56.7097 -35.2168 EX 57 -4 14 282
1935241N23291 1935 46 NA NA NOT_NAMED 1935-09-10 06:00:00 ET 56.8000 -36.5000 55 hurdat_atl main 527 471 O_____________ hurdat_atl AL031935 56.8000 -36.5000 EX 55 -4 14 278
1935241N23291 1935 46 NA NA NOT_NAMED 1935-09-10 09:00:00 ET 56.8944 -37.7593 main 467 419 P_____________ AL031935 56.8944 -37.7593 EX 52 -4 14 278
1935241N23291 1935 46 NA NA NOT_NAMED 1935-09-10 12:00:00 ET 57.0000 -39.0000 50 hurdat_atl main 416 O_____________ hurdat_atl AL031935 57.0000 -39.0000 EX 50 -4 14 279

IBTrACS Databaseについて

本データベースは、米国NOAAが公開する1842年以降の世界の熱帯低気圧のベストトラックデータアーカイブInternational Best Track Archive for Climate Stewardship (IBTrACS)を、ウェブで閲覧しやすい形式に変換したものです。

最終更新日:2021-10-08